Time;durP1;ratioP1;P1;durP2;ratioP2;P2;SDS_P1;SDS_P2;PMS_P1;PMS_P2;Temp;Humidity;BMP_temperature;BMP_pressure;BME280_temperature;BME280_humidity;BME280_pressure;Samples;Min_cycle;Max_cycle;Signal;HPM_P1;HPM_P2
2022/10/10 00:01:36;;;;;;;0.20;0.20;;;;;;;9.21;72.96;100425.66;4844726;29;20041;-70
2022/10/10 00:04:06;;;;;;;1.02;0.57;;;;;;;9.43;73.60;100477.81;4844496;29;20057;-70
2022/10/10 00:06:36;;;;;;;1.55;0.70;;;;;;;9.48;73.99;100485.56;4844361;29;20056;-70
2022/10/10 00:09:06;;;;;;;0.60;0.60;;;;;;;9.48;73.54;100485.56;4844715;29;20130;-69
2022/10/10 00:11:35;;;;;;;0.52;0.52;;;;;;;9.46;73.51;100493.16;4844256;29;20560;-70
2022/10/10 00:14:05;;;;;;;0.50;0.50;;;;;;;9.41;73.63;100480.34;4844534;29;20073;-70
2022/10/10 00:16:34;;;;;;;0.63;0.60;;;;;;;9.38;74.33;100480.28;4844325;29;20054;-70
2022/10/10 00:19:03;;;;;;;0.30;0.30;;;;;;;9.36;74.08;100466.69;4844149;29;20046;-70
2022/10/10 00:21:32;;;;;;;0.80;0.80;;;;;;;9.43;74.03;100478.69;4844348;29;20038;-70
2022/10/10 00:24:02;;;;;;;0.32;0.32;;;;;;;9.41;73.17;100480.34;4843843;29;20054;-69
2022/10/10 00:26:31;;;;;;;0.40;0.40;;;;;;;9.38;74.00;100485.38;4844073;29;20042;-70
2022/10/10 00:28:59;;;;;;;0.45;0.45;;;;;;;9.33;74.71;100469.16;4844198;29;20199;-70
2022/10/10 00:31:28;;;;;;;1.13;0.80;;;;;;;9.07;74.01;100441.56;4844095;29;20050;-69
2022/10/10 00:33:58;;;;;;;0.87;0.87;;;;;;;9.33;74.30;100471.72;4843891;29;20041;-70
2022/10/10 00:36:26;;;;;;;0.57;0.57;;;;;;;9.31;73.87;100478.47;4843353;29;20057;-71
2022/10/10 00:38:55;;;;;;;0.50;0.50;;;;;;;8.92;73.90;100423.47;4843796;29;20062;-70
2022/10/10 00:41:25;;;;;;;0.33;0.33;;;;;;;9.19;74.23;100478.25;4842887;29;20390;-70
2022/10/10 00:44:05;;;;;;;0.80;0.80;;;;;;;9.12;74.51;100476.44;4844244;29;20308;-70
2022/10/10 00:46:35;;;;;;;0.30;0.30;;;;;;;9.12;74.83;100466.25;4843799;29;20053;-70
2022/10/10 00:49:07;;;;;;;0.93;0.90;;;;;;;9.12;74.84;100466.25;4842429;29;20050;-70
2022/10/10 00:51:37;;;;;;;0.32;0.32;;;;;;;9.06;74.94;100463.63;4843928;29;20062;-70
2022/10/10 00:54:09;;;;;;;0.45;0.45;;;;;;;8.94;74.60;100454.88;4843897;29;20072;-70
2022/10/10 00:56:43;;;;;;;0.60;0.60;;;;;;;8.93;75.23;100454.03;4843636;29;20050;-70
2022/10/10 00:59:14;;;;;;;0.30;0.30;;;;;;;8.88;74.93;100450.53;4843472;29;20049;-70
2022/10/10 01:01:43;;;;;;;0.30;0.30;;;;;;;8.93;75.02;100459.13;4844482;29;20058;-69
2022/10/10 01:04:31;;;;;;;0.82;0.60;;;;;;;8.91;75.24;100453.16;4843326;29;20045;-70
2022/10/10 01:07:02;;;;;;;1.17;1.08;;;;;;;8.95;75.21;100454.91;4843647;29;20072;-70
2022/10/10 01:09:32;;;;;;;1.38;1.27;;;;;;;8.96;75.58;100449.00;4843252;29;20053;-70
2022/10/10 01:12:17;;;;;;;0.30;0.30;;;;;;;8.96;75.29;100443.91;4843264;29;20057;-70
2022/10/10 01:14:55;;;;;;;1.20;1.02;;;;;;;8.98;75.50;100442.25;4843548;29;20066;-70
2022/10/10 01:17:30;;;;;;;0.30;0.30;;;;;;;8.99;75.19;100446.50;4843197;29;20056;-70
2022/10/10 01:20:31;;;;;;;0.80;0.63;;;;;;;8.94;76.06;100445.56;4843437;29;20462;-70
2022/10/10 01:23:35;;;;;;;3.38;3.13;;;;;;;8.87;75.44;100443.75;4839049;29;20050;-70
2022/10/10 01:26:26;;;;;;;1.02;1.02;;;;;;;8.90;75.78;100446.31;4803804;29;20046;-70
2022/10/10 01:29:03;;;;;;;0.80;0.80;;;;;;;8.92;75.86;100442.16;4842984;29;20053;-71
2022/10/10 01:31:38;;;;;;;0.40;0.40;;;;;;;8.91;75.58;100437.00;4843142;29;20061;-71
2022/10/10 01:34:16;;;;;;;0.77;0.68;;;;;;;8.92;75.99;100439.59;4842916;29;20110;-70
2022/10/10 01:36:53;;;;;;;1.50;1.25;;;;;;;8.92;75.52;100433.66;4843229;29;20422;-69
2022/10/10 01:39:30;;;;;;;0.57;0.57;;;;;;;8.91;75.54;100430.22;4843235;29;20400;-70
2022/10/10 01:42:05;;;;;;;1.10;0.82;;;;;;;8.91;75.02;100435.31;4843197;29;20397;-70
2022/10/10 01:44:35;;;;;;;0.95;0.95;;;;;;;8.87;75.25;100438.66;4841999;29;20050;-69
2022/10/10 01:47:04;;;;;;;0.95;0.57;;;;;;;8.85;76.18;100427.59;4841079;29;20512;-70
2022/10/10 01:49:33;;;;;;;0.75;0.75;;;;;;;8.86;75.73;100429.28;4843061;29;20049;-71
2022/10/10 01:52:11;;;;;;;;;;;;;;;8.87;75.66;100432.69;4843141;29;20042;-70
2022/10/10 01:54:50;;;;;;;0.45;0.45;;;;;;;8.84;75.38;100425.88;4843062;29;19978;-69
2022/10/10 01:57:25;;;;;;;0.93;0.90;;;;;;;8.84;75.67;100428.41;4843120;29;20064;-70
2022/10/10 02:00:04;;;;;;;1.08;0.73;;;;;;;8.81;75.73;100420.72;4841917;29;20377;-70
2022/10/10 02:02:39;;;;;;;;;;;;;;;8.85;75.51;100419.97;4843230;29;20071;-70
2022/10/10 02:05:15;;;;;;;0.22;0.22;;;;;;;8.85;75.72;100422.50;4842709;29;19924;-70
2022/10/10 02:07:50;;;;;;;0.45;0.45;;;;;;;8.84;75.62;100422.47;4842948;29;20130;-70
2022/10/10 02:10:24;;;;;;;0.60;0.60;;;;;;;8.80;76.08;100413.94;4842704;29;20050;-70
2022/10/10 02:12:54;;;;;;;0.30;0.30;;;;;;;8.72;75.78;100406.16;4842657;29;20123;-70
2022/10/10 02:15:29;;;;;;;0.47;0.47;;;;;;;8.78;75.65;100415.59;4842602;29;20050;-70
2022/10/10 02:17:58;;;;;;;0.30;0.30;;;;;;;8.75;76.20;100421.47;4842590;29;20065;-69
2022/10/10 02:20:29;;;;;;;2.83;0.67;;;;;;;8.72;75.84;100416.31;4841630;29;20046;-69
2022/10/10 02:22:58;;;;;;;0.40;0.40;;;;;;;8.74;76.03;100411.25;4842545;29;20101;-70
2022/10/10 02:25:30;;;;;;;0.70;0.70;;;;;;;8.69;75.89;100401.00;4842556;29;20056;-70
2022/10/10 02:28:11;;;;;;;0.75;0.75;;;;;;;8.77;76.53;100416.41;4842438;29;20286;-70
2022/10/10 02:30:45;;;;;;;1.10;0.85;;;;;;;8.74;76.02;100406.16;4842807;29;20377;-70
2022/10/10 02:33:19;;;;;;;0.32;0.32;;;;;;;8.75;76.07;100413.84;4842802;29;20408;-70
2022/10/10 02:35:50;;;;;;;0.60;0.60;;;;;;;8.76;76.05;100409.59;4842738;29;20505;-70
2022/10/10 02:38:20;;;;;;;0.60;0.60;;;;;;;8.69;76.33;100401.00;4842752;29;20049;-70
2022/10/10 02:40:49;;;;;;;;;;;;;;;8.72;76.15;100407.81;4843114;29;20054;-70
2022/10/10 02:43:19;;;;;;;1.05;0.75;;;;;;;8.75;75.95;100411.31;4842387;29;19924;-69
2022/10/10 02:45:49;;;;;;;0.75;0.75;;;;;;;8.77;75.93;100403.69;4842625;29;20110;-70
2022/10/10 02:48:19;;;;;;;0.52;0.52;;;;;;;8.77;76.24;100402.00;4842298;29;20054;-70
2022/10/10 02:50:48;;;;;;;0.32;0.32;;;;;;;8.75;76.01;100407.88;4842618;29;20453;-70
2022/10/10 02:53:16;;;;;;;0.60;0.60;;;;;;;8.75;75.50;100410.44;4842296;29;20042;-70
2022/10/10 02:55:45;;;;;;;0.60;0.60;;;;;;;8.73;76.59;100407.84;4842499;29;20171;-70
2022/10/10 02:58:14;;;;;;;0.60;0.60;;;;;;;8.72;75.86;100397.66;4842859;29;20106;-69
2022/10/10 03:00:42;;;;;;;0.50;0.40;;;;;;;8.75;76.69;100398.56;4845534;29;20050;-71
2022/10/10 03:03:13;;;;;;;0.57;0.57;;;;;;;8.76;75.82;100413.00;4845821;29;20052;-70
2022/10/10 03:05:41;;;;;;;0.30;0.30;;;;;;;8.72;75.88;100407.81;4845818;29;20066;-70
2022/10/10 03:08:11;;;;;;;2.72;1.60;;;;;;;8.40;76.59;100353.78;4845390;29;20050;-71
2022/10/10 03:10:39;;;;;;;1.45;0.82;;;;;;;8.69;76.54;100402.66;4845571;29;20520;-70
2022/10/10 03:13:08;;;;;;;0.40;0.40;;;;;;;8.62;76.54;100393.22;4844223;29;20053;-70
2022/10/10 03:15:37;;;;;;;0.28;0.28;;;;;;;8.63;76.17;100392.41;4845374;29;20045;-71
2022/10/10 03:18:06;;;;;;;1.45;0.70;;;;;;;8.66;76.06;100398.38;4845157;29;20505;-71
2022/10/10 03:20:36;;;;;;;0.40;0.40;;;;;;;8.65;76.69;100401.78;4845225;29;20060;-70
2022/10/10 03:23:04;;;;;;;0.65;0.65;;;;;;;8.63;76.51;100397.47;4844818;29;20061;-70
2022/10/10 03:25:33;;;;;;;3.70;1.65;;;;;;;8.61;76.42;100399.16;4845378;29;20042;-70
2022/10/10 03:28:02;;;;;;;1.15;0.82;;;;;;;8.58;76.73;100404.19;4845011;29;20182;-70
2022/10/10 03:30:30;;;;;;;0.40;0.40;;;;;;;8.47;76.38;100387.88;4844955;29;20052;-70
2022/10/10 03:32:59;;;;;;;0.40;0.40;;;;;;;8.46;76.17;100403.94;4845303;29;20054;-71
2022/10/10 03:35:28;;;;;;;0.68;0.65;;;;;;;8.34;76.00;100399.47;4844951;29;20042;-70
2022/10/10 03:37:58;;;;;;;5.75;1.15;;;;;;;8.34;76.56;100404.56;4845465;29;20500;-70
2022/10/10 03:40:28;;;;;;;0.63;0.63;;;;;;;8.29;76.93;100403.63;4844873;29;20061;-71
2022/10/10 03:42:57;;;;;;;0.50;0.50;;;;;;;8.37;76.60;100398.69;4845175;29;20136;-70
2022/10/10 03:45:26;;;;;;;2.05;1.85;;;;;;;8.40;77.14;100401.25;4844777;29;20046;-70
2022/10/10 03:47:54;;;;;;;0.25;0.25;;;;;;;8.33;77.39;100401.97;4844959;29;20046;-70
2022/10/10 03:50:23;;;;;;;0.75;0.70;;;;;;;8.30;77.54;100402.75;4844979;29;20045;-70
2022/10/10 03:52:52;;;;;;;1.25;0.60;;;;;;;8.26;77.82;100384.84;4844732;29;20042;-70
2022/10/10 03:55:22;;;;;;;15.07;1.20;;;;;;;8.31;77.57;100404.50;4843360;29;20053;-69
2022/10/10 03:57:51;;;;;;;0.50;0.45;;;;;;;8.22;78.03;100405.97;4844547;29;20060;-70
2022/10/10 04:00:20;;;;;;;0.80;0.77;;;;;;;8.16;78.32;100404.13;4844636;29;20125;-70
2022/10/10 04:02:48;;;;;;;0.32;0.32;;;;;;;8.17;78.04;100410.09;4844415;29;20042;-70
2022/10/10 04:05:18;;;;;;;0.55;0.55;;;;;;;8.21;77.77;100407.63;4844460;29;20049;-70
2022/10/10 04:07:46;;;;;;;0.73;0.65;;;;;;;8.25;78.28;100398.41;4844377;29;20049;-70
2022/10/10 04:10:15;;;;;;;1.38;1.10;;;;;;;8.30;77.59;100396.84;4843412;29;20050;-70
2022/10/10 04:12:45;;;;;;;1.23;1.10;;;;;;;8.35;78.11;100397.81;4844328;29;20129;-70
2022/10/10 04:15:14;;;;;;;1.10;1.00;;;;;;;8.39;78.15;100397.03;4844231;29;20289;-70
2022/10/10 04:17:43;;;;;;;3.47;1.55;;;;;;;8.33;78.40;100396.88;4844483;29;20062;-71
2022/10/10 04:20:11;;;;;;;1.60;1.35;;;;;;;8.32;77.95;100392.66;4844167;29;20054;-70
2022/10/10 04:22:41;;;;;;;0.50;0.50;;;;;;;8.33;78.39;100385.03;4844134;29;20053;-70
2022/10/10 04:25:10;;;;;;;0.65;0.65;;;;;;;8.30;78.28;100390.03;4843302;29;20050;-70
2022/10/10 04:27:39;;;;;;;2.13;1.50;;;;;;;8.17;77.84;100374.50;4843987;29;20512;-69
2022/10/10 04:30:11;;;;;;;0.80;0.80;;;;;;;8.26;77.52;100384.84;4843843;29;20050;-70
2022/10/10 04:32:40;;;;;;;1.00;0.88;;;;;;;8.24;78.17;100386.50;4843986;29;20779;-70
2022/10/10 04:35:09;;;;;;;0.88;0.85;;;;;;;8.27;77.91;100389.16;4843843;29;20132;-70
2022/10/10 04:37:38;;;;;;;1.27;1.15;;;;;;;8.28;78.10;100390.88;4843851;29;20099;-70
2022/10/10 04:40:07;;;;;;;1.00;0.82;;;;;;;8.31;78.41;100398.53;4842870;29;20050;-70
2022/10/10 04:42:36;;;;;;;0.90;0.90;;;;;;;8.18;78.50;100368.59;4844358;29;20070;-70
2022/10/10 04:45:06;;;;;;;0.75;0.73;;;;;;;8.22;78.28;100385.63;4842592;29;20050;-71
2022/10/10 04:47:36;;;;;;;1.45;1.35;;;;;;;8.30;78.56;100391.75;4843618;29;20053;-71
2022/10/10 04:50:06;;;;;;;0.57;0.57;;;;;;;8.32;78.34;100392.66;4843374;29;20137;-70
2022/10/10 04:52:35;;;;;;;;;;;;;;;8.37;77.53;100389.38;4842906;29;20054;-70
2022/10/10 04:55:04;;;;;;;3.78;1.50;;;;;;;8.39;78.34;100394.47;4844296;29;19932;-70
2022/10/10 04:57:33;;;;;;;0.50;0.50;;;;;;;8.39;77.80;100389.38;4843504;29;20049;-71
2022/10/10 05:00:01;;;;;;;3.90;1.10;;;;;;;8.26;77.68;100375.56;4843669;29;20471;-71
2022/10/10 05:02:30;;;;;;;0.38;0.38;;;;;;;8.38;77.83;100397.84;4843817;29;20046;-71
2022/10/10 05:05:00;;;;;;;1.15;0.90;;;;;;;8.41;77.67;100392.81;4843724;29;20050;-69
2022/10/10 05:07:29;;;;;;;1.25;0.52;;;;;;;8.42;77.86;100392.00;4842802;29;20489;-70
2022/10/10 05:09:58;;;;;;;1.90;1.80;;;;;;;8.40;78.08;100388.53;4843252;29;20058;-71
2022/10/10 05:12:26;;;;;;;0.50;0.50;;;;;;;8.40;77.69;100393.63;4843512;29;20588;-70
2022/10/10 05:14:55;;;;;;;1.55;1.30;;;;;;;8.42;78.16;100387.75;4843707;29;20045;-71
2022/10/10 05:17:24;;;;;;;2.17;1.02;;;;;;;8.44;77.81;100392.88;4843343;29;20069;-69
2022/10/10 05:19:52;;;;;;;1.00;0.85;;;;;;;8.46;78.17;100393.75;4843378;29;20488;-69
2022/10/10 05:22:22;;;;;;;0.73;0.73;;;;;;;8.46;78.63;100389.53;4842773;29;20050;-70
2022/10/10 05:24:51;;;;;;;0.60;0.60;;;;;;;8.44;77.84;100395.44;4842982;29;20069;-71
2022/10/10 05:27:20;;;;;;;0.55;0.52;;;;;;;8.38;78.31;100372.41;4843330;29;20072;-70
2022/10/10 05:29:48;;;;;;;1.38;1.27;;;;;;;8.54;77.73;100392.22;4842917;29;20049;-70
2022/10/10 05:32:17;;;;;;;0.80;0.80;;;;;;;8.56;78.07;100395.66;4842931;29;20057;-70
2022/10/10 05:34:46;;;;;;;1.63;1.30;;;;;;;8.60;78.93;100400.84;4843259;29;20065;-70
2022/10/10 05:37:15;;;;;;;4.00;1.13;;;;;;;8.69;77.92;100402.66;4841762;29;20054;-70
2022/10/10 05:39:45;;;;;;;1.48;1.38;;;;;;;8.74;77.93;100395.97;4842885;29;20052;-70
2022/10/10 05:42:16;;;;;;;0.73;0.73;;;;;;;8.76;78.23;100386.69;4842756;29;20061;-70
2022/10/10 05:44:45;;;;;;;0.85;0.82;;;;;;;8.82;78.39;100386.81;4842787;29;20053;-70
2022/10/10 05:47:14;;;;;;;0.28;0.28;;;;;;;8.91;77.70;100391.19;4842794;29;20110;-70
2022/10/10 05:49:42;;;;;;;8.18;2.97;;;;;;;8.98;78.13;100391.31;4842746;29;20123;-70
2022/10/10 05:52:11;;;;;;;0.50;0.50;;;;;;;9.13;77.72;100399.22;4842837;29;20110;-70
2022/10/10 05:54:40;;;;;;;0.70;0.70;;;;;;;9.29;78.21;100395.22;4842759;29;20481;-70
2022/10/10 05:57:10;;;;;;;3.05;1.70;;;;;;;9.45;77.81;100400.56;4843018;29;20068;-69
2022/10/10 05:59:44;;;;;;;4.13;1.30;;;;;;;9.66;77.87;100404.28;4842789;29;20420;-70
2022/10/10 06:02:13;;;;;;;0.40;0.40;;;;;;;9.80;77.33;100402.78;4842891;29;20531;-70
2022/10/10 06:04:42;;;;;;;;;;;;;;;9.94;76.99;100404.69;4843373;29;20150;-69
2022/10/10 06:07:10;;;;;;;1.00;0.73;;;;;;;10.04;76.74;100403.13;4842863;29;19924;-70
2022/10/10 06:09:39;;;;;;;1.10;1.00;;;;;;;10.19;76.14;100400.81;4842906;29;20039;-70
2022/10/10 06:12:09;;;;;;;1.45;0.95;;;;;;;10.30;75.98;100401.78;4842450;29;20106;-70
2022/10/10 06:14:38;;;;;;;0.47;0.47;;;;;;;10.12;75.93;100342.91;4842646;29;20405;-70
2022/10/10 06:17:06;;;;;;;1.58;0.55;;;;;;;10.45;75.24;100391.75;4842535;29;20568;-70
2022/10/10 06:19:35;;;;;;;0.60;0.60;;;;;;;10.53;74.81;100390.13;4842481;29;20111;-70
2022/10/10 06:22:04;;;;;;;7.75;1.42;;;;;;;10.55;75.01;100385.91;4843833;29;20401;-69
2022/10/10 06:24:33;;;;;;;0.52;0.52;;;;;;;10.73;74.62;100391.19;4842338;29;20054;-70
2022/10/10 06:27:02;;;;;;;2.15;1.58;;;;;;;10.84;74.32;100393.00;4841367;29;20050;-71
2022/10/10 06:29:32;;;;;;;0.60;0.60;;;;;;;10.90;74.61;100396.47;4842350;29;20042;-69
2022/10/10 06:32:01;;;;;;;1.00;0.95;;;;;;;10.95;74.06;100394.81;4842984;29;20129;-70
2022/10/10 06:34:30;;;;;;;0.63;0.47;;;;;;;11.02;73.62;100390.59;4844854;29;20073;-70
2022/10/10 06:36:58;;;;;;;0.50;0.50;;;;;;;11.10;73.96;100404.31;4844701;29;20042;-70
2022/10/10 06:39:27;;;;;;;2.20;0.98;;;;;;;11.01;73.83;100368.47;4846154;29;20075;-71
2022/10/10 06:41:56;;;;;;;0.90;0.65;;;;;;;11.25;73.45;100389.13;4846051;29;20062;-69
2022/10/10 06:44:26;;;;;;;4.18;1.95;;;;;;;11.38;73.14;100391.78;4845809;29;20061;-70
2022/10/10 06:46:56;;;;;;;1.13;0.88;;;;;;;11.54;73.03;100387.59;4846073;29;20069;-71
2022/10/10 06:49:25;;;;;;;1.58;1.48;;;;;;;11.61;72.71;100393.63;4844483;29;20058;-70
2022/10/10 06:51:57;;;;;;;2.42;1.08;;;;;;;11.68;72.72;100396.28;4845674;29;20434;-71
2022/10/10 06:54:25;;;;;;;0.50;0.50;;;;;;;11.48;72.58;100333.91;4844710;29;20049;-71
2022/10/10 06:56:54;;;;;;;1.45;1.20;;;;;;;11.89;72.42;100398.97;4845688;29;20049;-70
2022/10/10 06:59:23;;;;;;;0.50;0.50;;;;;;;11.96;72.00;100393.03;4845560;29;20038;-69
2022/10/10 07:01:51;;;;;;;0.80;0.80;;;;;;;11.90;71.54;100392.97;4845799;29;20050;-71
2022/10/10 07:04:22;;;;;;;0.50;0.50;;;;;;;11.87;71.37;100387.88;4845412;29;20045;-69
2022/10/10 07:06:51;;;;;;;0.40;0.40;;;;;;;11.91;71.08;100389.59;4845434;29;20057;-71
2022/10/10 07:09:19;;;;;;;1.02;0.88;;;;;;;11.97;70.80;100389.59;4845580;29;20073;-70
2022/10/10 07:11:48;;;;;;;1.40;1.30;;;;;;;11.99;70.67;100371.72;4845169;29;20106;-70
2022/10/10 07:14:17;;;;;;;0.50;0.50;;;;;;;12.22;70.51;100385.47;4844927;29;20049;-69
2022/10/10 07:16:45;;;;;;;1.55;1.25;;;;;;;12.35;70.40;100387.22;4843238;29;20193;-71
2022/10/10 07:19:14;;;;;;;0.52;0.52;;;;;;;12.46;69.28;100385.53;4845402;29;20122;-70
2022/10/10 07:21:44;;;;;;;1.45;1.35;;;;;;;12.59;69.67;100386.44;4845140;29;20056;-69
2022/10/10 07:24:13;;;;;;;0.80;0.80;;;;;;;12.71;69.46;100378.78;4844868;29;20110;-71
2022/10/10 07:26:41;;;;;;;2.60;0.63;;;;;;;12.80;69.01;100376.22;4845402;29;20144;-71
2022/10/10 07:29:10;;;;;;;0.90;0.80;;;;;;;12.91;68.74;100374.53;4844879;29;20570;-70
2022/10/10 07:31:38;;;;;;;0.30;0.30;;;;;;;13.04;68.62;100376.25;4844880;29;20046;-71
2022/10/10 07:34:07;;;;;;;0.43;0.43;;;;;;;13.07;68.07;100371.16;4845207;29;20034;-70
2022/10/10 07:36:37;;;;;;;0.50;0.50;;;;;;;13.08;67.53;100365.16;4845016;29;20042;-70
2022/10/10 07:39:08;;;;;;;0.77;0.77;;;;;;;13.17;67.70;100372.03;4845236;29;20180;-71
2022/10/10 07:41:43;;;;;;;0.63;0.63;;;;;;;13.31;67.91;100376.28;4845183;29;20050;-70
2022/10/10 07:44:12;;;;;;;19.63;1.25;;;;;;;13.41;67.26;100377.97;4844754;29;20046;-70
2022/10/10 07:46:41;;;;;;;0.47;0.47;;;;;;;13.53;67.02;100381.41;4845038;29;20069;-71
2022/10/10 07:49:10;;;;;;;0.55;0.55;;;;;;;13.63;67.00;100367.69;4834591;29;20044;-72
2022/10/10 07:51:39;;;;;;;0.73;0.73;;;;;;;13.71;66.35;100371.09;4825654;29;20078;-70
2022/10/10 07:54:10;;;;;;;0.40;0.40;;;;;;;13.79;65.77;100374.50;4826264;29;20133;-70
2022/10/10 07:56:38;;;;;;;0.68;0.68;;;;;;;13.85;65.99;100375.31;4825694;29;20099;-70
2022/10/10 07:59:07;;;;;;;3.72;1.48;;;;;;;13.92;65.79;100376.16;4825109;29;20166;-71
2022/10/10 08:01:36;;;;;;;20.95;1.15;;;;;;;14.00;66.12;100379.56;4826486;29;20070;-71
2022/10/10 08:04:04;;;;;;;0.32;0.32;;;;;;;14.01;65.91;100356.44;4826284;29;20050;-70
2022/10/10 08:06:33;;;;;;;1.05;1.02;;;;;;;14.21;65.99;100358.06;4810736;29;20045;-70
2022/10/10 08:09:01;;;;;;;0.60;0.60;;;;;;;14.30;65.79;100352.91;4816246;29;20043;-71
2022/10/10 08:11:32;;;;;;;0.45;0.45;;;;;;;14.47;65.40;100369.09;4815806;29;20049;-71
2022/10/10 08:14:00;;;;;;;1.45;1.25;;;;;;;14.50;64.64;100372.50;4816684;29;20088;-70
2022/10/10 08:16:29;;;;;;;1.40;0.70;;;;;;;14.51;63.63;100358.81;4807659;29;20502;-70
2022/10/10 08:18:58;;;;;;;0.70;0.70;;;;;;;14.57;63.27;100352.78;4807979;29;20391;-70
2022/10/10 08:21:26;;;;;;;0.80;0.80;;;;;;;14.57;63.61;100347.63;4812876;29;20043;-70
2022/10/10 08:23:56;;;;;;;0.47;0.47;;;;;;;14.72;62.92;100362.97;4809096;29;20059;-70
2022/10/10 08:26:24;;;;;;;1.08;0.95;;;;;;;14.77;62.96;100367.22;4816932;29;20046;-70
2022/10/10 08:28:55;;;;;;;0.63;0.47;;;;;;;14.83;61.92;100361.16;4816524;29;20494;-71
2022/10/10 08:31:23;;;;;;;0.30;0.30;;;;;;;14.94;62.31;100363.66;4817290;29;20046;-70
2022/10/10 08:33:52;;;;;;;0.93;0.73;;;;;;;15.07;63.13;100368.69;4816392;29;20122;-70
2022/10/10 08:36:23;;;;;;;1.47;1.37;;;;;;;15.22;63.01;100362.56;4813892;29;20502;-70
2022/10/10 08:38:56;;;;;;;0.50;0.50;;;;;;;15.31;62.68;100349.63;4817362;29;20374;-70
2022/10/10 08:41:38;;;;;;;1.20;1.05;;;;;;;15.48;61.67;100357.25;4825998;29;20046;-70
2022/10/10 08:44:18;;;;;;;0.70;0.70;;;;;;;15.62;61.03;100353.63;4825906;29;20058;-71
2022/10/10 08:46:52;;;;;;;0.60;0.60;;;;;;;15.73;59.88;100354.41;4824608;29;20053;-71
2022/10/10 08:49:27;;;;;;;1.75;1.50;;;;;;;15.89;59.48;100345.63;4820376;29;20047;-70
2022/10/10 08:52:01;;;;;;;0.52;0.52;;;;;;;16.03;59.03;100343.72;4818275;29;20043;-70
2022/10/10 08:54:34;;;;;;;0.98;0.77;;;;;;;16.24;59.02;100341.78;4823050;29;20058;-71
2022/10/10 08:57:06;;;;;;;0.73;0.73;;;;;;;16.41;58.89;100342.41;4817841;29;20046;-71
2022/10/10 08:59:40;;;;;;;0.57;0.47;;;;;;;16.47;57.70;100335.44;4809926;29;20058;-71
2022/10/10 09:02:31;;;;;;;1.30;0.80;;;;;;;16.56;57.05;100335.31;4807386;29;20047;-71
2022/10/10 09:05:25;;;;;;;0.52;0.50;;;;;;;16.62;55.07;100329.25;4817343;29;20077;-71
2022/10/10 09:08:14;;;;;;;0.95;0.73;;;;;;;16.70;53.85;100322.22;4819957;29;20521;-69
2022/10/10 09:10:53;;;;;;;0.60;0.60;;;;;;;16.75;52.36;100320.44;4821682;29;20086;-70
2022/10/10 09:13:32;;;;;;;1.30;1.15;;;;;;;16.83;51.85;100322.88;4825104;29;20071;-71
2022/10/10 09:16:06;;;;;;;1.08;0.98;;;;;;;16.95;51.83;100326.13;4838729;29;20050;-69
2022/10/10 09:18:46;;;;;;;0.50;0.50;;;;;;;16.79;51.10;100280.84;4826172;29;20046;-69
2022/10/10 09:21:18;;;;;;;0.73;0.73;;;;;;;17.12;50.15;100318.09;4824312;29;20056;-69
2022/10/10 09:23:55;;;;;;;0.45;0.45;;;;;;;17.19;50.28;100311.97;4841800;29;20058;-69
2022/10/10 09:26:28;;;;;;;0.50;0.50;;;;;;;17.28;49.81;100306.63;4843116;29;20054;-69
2022/10/10 09:29:03;;;;;;;0.65;0.65;;;;;;;17.36;49.69;100315.97;4822671;29;20066;-69
2022/10/10 09:31:38;;;;;;;0.50;0.50;;;;;;;17.42;49.54;100315.84;4807340;29;20055;-70
2022/10/10 09:34:14;;;;;;;0.65;0.65;;;;;;;17.65;49.79;100319.75;4806999;29;20050;-69
2022/10/10 09:36:45;;;;;;;1.05;0.85;;;;;;;17.79;49.30;100312.59;4806951;29;20085;-70
2022/10/10 09:39:21;;;;;;;0.63;0.63;;;;;;;17.95;49.84;100316.56;4806859;29;20112;-70
2022/10/10 09:41:56;;;;;;;0.40;0.40;;;;;;;17.96;48.76;100303.63;4806807;29;20058;-69
2022/10/10 09:44:25;;;;;;;0.98;0.80;;;;;;;17.98;48.24;100303.59;4806774;29;20137;-69
2022/10/10 09:46:55;;;;;;;0.77;0.77;;;;;;;18.05;48.88;100300.84;4812502;29;20126;-70
2022/10/10 09:49:24;;;;;;;0.50;0.50;;;;;;;17.92;48.23;100295.97;4825040;29;20459;-70
2022/10/10 09:51:52;;;;;;;0.50;0.50;;;;;;;17.89;48.88;100307.22;4824581;29;20053;-68
2022/10/10 09:54:22;;;;;;;0.85;0.85;;;;;;;17.85;48.76;100296.97;4810616;29;20577;-69
2022/10/10 09:56:55;;;;;;;0.60;0.60;;;;;;;17.84;48.43;100297.84;4826171;29;20401;-69
2022/10/10 09:59:36;;;;;;;0.60;0.60;;;;;;;17.90;48.21;100295.16;4824748;29;20065;-70
2022/10/10 10:02:14;;;;;;;0.40;0.40;;;;;;;17.94;48.35;100295.06;4824331;29;20073;-72
2022/10/10 10:04:43;;;;;;;1.73;0.98;;;;;;;17.71;48.14;100244.75;4832181;29;20042;-70
2022/10/10 10:07:21;;;;;;;0.52;0.52;;;;;;;18.03;47.92;100299.16;4820995;29;20091;-69
2022/10/10 10:09:53;;;;;;;0.77;0.77;;;;;;;18.04;47.60;100293.13;4810695;29;20075;-69
2022/10/10 10:12:25;;;;;;;0.60;0.60;;;;;;;18.00;47.60;100283.72;4809349;29;20154;-68
2022/10/10 10:15:01;;;;;;;0.50;0.50;;;;;;;18.02;46.84;100287.13;4810159;29;20139;-69
2022/10/10 10:17:32;;;;;;;1.17;1.05;;;;;;;17.99;46.80;100282.03;4809762;29;20078;-70
2022/10/10 10:20:01;;;;;;;0.50;0.50;;;;;;;17.97;46.58;100283.81;4809779;29;20066;-69
2022/10/10 10:22:37;;;;;;;1.05;0.93;;;;;;;17.99;46.60;100297.53;4809761;29;20049;-67
2022/10/10 10:25:30;;;;;;;1.70;0.93;;;;;;;18.01;46.05;100291.47;4812475;29;20074;-70
2022/10/10 10:28:15;;;;;;;0.60;0.60;;;;;;;18.07;46.65;100285.28;4812807;29;20061;-68
2022/10/10 10:30:45;;;;;;;2.80;1.13;;;;;;;18.06;46.72;100273.28;4807474;29;20055;-68
2022/10/10 10:33:30;;;;;;;0.95;0.88;;;;;;;18.19;46.62;100279.84;4808283;29;20484;-71
2022/10/10 10:36:11;;;;;;;0.47;0.47;;;;;;;18.35;46.69;100277.81;4808713;29;20141;-69
2022/10/10 10:38:46;;;;;;;0.30;0.30;;;;;;;18.51;46.80;100274.84;4841858;29;20080;-68
2022/10/10 10:41:22;;;;;;;0.55;0.55;;;;;;;18.83;47.18;100271.50;4844505;29;20527;-70
2022/10/10 10:44:12;;;;;;;0.50;0.50;;;;;;;19.01;46.76;100272.75;4844628;29;20046;-70
2022/10/10 10:46:55;;;;;;;0.80;0.75;;;;;;;18.93;46.38;100260.00;4830818;29;20509;-71
2022/10/10 10:49:29;;;;;;;1.02;0.63;;;;;;;18.97;46.33;100265.97;4818373;29;20103;-70
2022/10/10 10:52:18;;;;;;;1.13;0.50;;;;;;;19.10;45.78;100264.78;4808188;29;20062;-70
2022/10/10 10:55:09;;;;;;;0.57;0.55;;;;;;;19.35;45.67;100252.88;4808430;29;20079;-69
2022/10/10 10:57:51;;;;;;;0.60;0.60;;;;;;;19.58;45.54;100237.56;4808285;29;20062;-70
2022/10/10 11:00:48;;;;;;;0.80;0.80;;;;;;;19.83;45.47;100241.16;4807852;29;20049;-71
2022/10/10 11:03:50;;;;;;;1.77;0.98;;;;;;;19.88;45.18;100231.50;4812156;29;20043;-71
2022/10/10 11:07:00;;;;;;;0.60;0.60;;;;;;;19.84;45.38;100227.28;4807963;29;20150;-70
2022/10/10 11:09:55;;;;;;;0.70;0.70;;;;;;;19.88;44.96;100218.56;4808185;29;20051;-71
2022/10/10 11:12:42;;;;;;;1.25;0.85;;;;;;;19.93;45.13;100221.88;4808080;29;20103;-71
2022/10/10 11:15:18;;;;;;;0.80;0.73;;;;;;;20.03;45.46;100218.06;4817387;29;20548;-70
2022/10/10 11:17:55;;;;;;;0.90;0.88;;;;;;;20.13;45.33;100228.19;4825998;29;20055;-70
2022/10/10 11:20:31;;;;;;;2.40;1.67;;;;;;;20.24;45.08;100223.53;4825643;29;20141;-70
2022/10/10 11:23:07;;;;;;;24.10;2.05;;;;;;;20.11;44.76;100183.31;4782933;29;1275702;-72
2022/10/10 11:25:43;;;;;;;0.77;0.77;;;;;;;20.45;44.52;100212.47;4811592;29;20074;-70
2022/10/10 11:28:16;;;;;;;0.47;0.47;;;;;;;20.43;44.38;100209.94;4816243;29;20046;-70
2022/10/10 11:30:51;;;;;;;1.42;0.85;;;;;;;20.29;44.95;100212.13;4823608;29;20073;-70
2022/10/10 11:33:24;;;;;;;0.82;0.82;;;;;;;19.96;45.36;100206.19;4826544;29;20054;-69
2022/10/10 11:36:00;;;;;;;1.05;0.88;;;;;;;20.08;45.29;100200.63;4826588;29;20512;-70
2022/10/10 11:38:35;;;;;;;0.90;0.73;;;;;;;20.16;44.91;100196.97;4826676;29;20074;-70
2022/10/10 11:41:09;;;;;;;3.10;1.50;;;;;;;20.16;44.66;100182.25;4826874;29;20049;-69
2022/10/10 11:43:46;;;;;;;0.50;0.50;;;;;;;20.10;44.55;100203.19;4826512;29;20057;-71
2022/10/10 11:46:27;;;;;;;1.42;1.23;;;;;;;20.07;44.34;100190.34;4820446;29;20058;-70
2022/10/10 11:49:07;;;;;;;0.75;0.75;;;;;;;20.20;44.34;100190.81;4814344;29;20046;-68
2022/10/10 11:51:45;;;;;;;0.68;0.68;;;;;;;20.31;44.43;100187.00;4824703;29;20061;-70
2022/10/10 11:54:31;;;;;;;0.90;0.90;;;;;;;20.33;43.99;100190.38;4826311;29;20131;-70